sensor_id;sensor_type;location;lat;lon;timestamp;P1;durP1;ratioP1;P2;durP2;ratioP2
25153;SDS011;47555;51.038;6.280;2023-05-23T00:01:04;14.38;;;8.93;;
25153;SDS011;47555;51.038;6.280;2023-05-23T00:03:31;17.45;;;9.93;;
25153;SDS011;47555;51.038;6.280;2023-05-23T00:05:57;14.50;;;8.55;;
25153;SDS011;47555;51.038;6.280;2023-05-23T00:08:23;15.27;;;8.65;;
25153;SDS011;47555;51.038;6.280;2023-05-23T00:10:49;13.10;;;8.65;;
25153;SDS011;47555;51.038;6.280;2023-05-23T00:13:15;12.95;;;8.35;;
25153;SDS011;47555;51.038;6.280;2023-05-23T00:15:41;13.35;;;8.55;;
25153;SDS011;47555;51.038;6.280;2023-05-23T00:18:10;11.50;;;7.82;;
25153;SDS011;47555;51.038;6.280;2023-05-23T00:20:40;12.32;;;8.43;;
25153;SDS011;47555;51.038;6.280;2023-05-23T00:23:07;11.30;;;8.10;;
25153;SDS011;47555;51.038;6.280;2023-05-23T00:25:34;13.13;;;7.85;;
25153;SDS011;47555;51.038;6.280;2023-05-23T00:28:00;14.05;;;8.45;;
25153;SDS011;47555;51.038;6.280;2023-05-23T00:30:27;14.30;;;8.77;;
25153;SDS011;47555;51.038;6.280;2023-05-23T00:32:53;14.63;;;8.95;;
25153;SDS011;47555;51.038;6.280;2023-05-23T00:35:19;16.52;;;9.98;;
25153;SDS011;47555;51.038;6.280;2023-05-23T00:37:46;16.92;;;10.55;;
25153;SDS011;47555;51.038;6.280;2023-05-23T00:40:14;20.23;;;10.85;;
25153;SDS011;47555;51.038;6.280;2023-05-23T00:42:40;25.42;;;13.30;;
25153;SDS011;47555;51.038;6.280;2023-05-23T00:45:06;21.40;;;12.88;;
25153;SDS011;47555;51.038;6.280;2023-05-23T00:47:32;27.90;;;14.57;;
25153;SDS011;47555;51.038;6.280;2023-05-23T00:49:58;27.35;;;16.05;;
25153;SDS011;47555;51.038;6.280;2023-05-23T00:52:24;31.75;;;16.42;;
25153;SDS011;47555;51.038;6.280;2023-05-23T00:54:50;32.72;;;16.23;;
25153;SDS011;47555;51.038;6.280;2023-05-23T00:57:16;34.88;;;18.38;;
25153;SDS011;47555;51.038;6.280;2023-05-23T00:59:42;38.38;;;20.10;;
25153;SDS011;47555;51.038;6.280;2023-05-23T01:02:10;37.45;;;21.33;;
25153;SDS011;47555;51.038;6.280;2023-05-23T01:04:37;36.47;;;21.25;;
25153;SDS011;47555;51.038;6.280;2023-05-23T01:07:03;45.15;;;24.02;;
25153;SDS011;47555;51.038;6.280;2023-05-23T01:09:29;44.72;;;25.40;;
25153;SDS011;47555;51.038;6.280;2023-05-23T01:14:32;37.42;;;22.05;;
25153;SDS011;47555;51.038;6.280;2023-05-23T01:17:02;41.95;;;21.00;;
25153;SDS011;47555;51.038;6.280;2023-05-23T01:19:50;38.58;;;20.02;;
25153;SDS011;47555;51.038;6.280;2023-05-23T01:24:54;22.58;;;12.98;;
25153;SDS011;47555;51.038;6.280;2023-05-23T01:27:22;18.02;;;10.95;;
25153;SDS011;47555;51.038;6.280;2023-05-23T01:29:50;20.77;;;10.85;;
25153;SDS011;47555;51.038;6.280;2023-05-23T01:32:19;18.02;;;11.15;;
25153;SDS011;47555;51.038;6.280;2023-05-23T01:34:46;18.08;;;11.45;;
25153;SDS011;47555;51.038;6.280;2023-05-23T01:37:12;20.80;;;12.70;;
25153;SDS011;47555;51.038;6.280;2023-05-23T01:39:42;20.05;;;12.65;;
25153;SDS011;47555;51.038;6.280;2023-05-23T01:42:08;19.33;;;11.57;;
25153;SDS011;47555;51.038;6.280;2023-05-23T01:44:34;18.30;;;12.57;;
25153;SDS011;47555;51.038;6.280;2023-05-23T01:47:03;20.15;;;12.48;;
25153;SDS011;47555;51.038;6.280;2023-05-23T01:49:30;19.05;;;12.00;;
25153;SDS011;47555;51.038;6.280;2023-05-23T01:51:57;18.73;;;10.80;;
25153;SDS011;47555;51.038;6.280;2023-05-23T01:54:24;15.43;;;10.15;;
25153;SDS011;47555;51.038;6.280;2023-05-23T01:56:50;14.63;;;8.82;;
25153;SDS011;47555;51.038;6.280;2023-05-23T01:59:16;13.93;;;8.80;;
25153;SDS011;47555;51.038;6.280;2023-05-23T02:01:42;11.27;;;7.65;;
25153;SDS011;47555;51.038;6.280;2023-05-23T02:04:08;13.13;;;7.10;;
25153;SDS011;47555;51.038;6.280;2023-05-23T02:06:34;9.57;;;6.55;;
25153;SDS011;47555;51.038;6.280;2023-05-23T02:09:00;10.57;;;6.53;;
25153;SDS011;47555;51.038;6.280;2023-05-23T02:11:25;11.35;;;7.20;;
25153;SDS011;47555;51.038;6.280;2023-05-23T02:13:51;10.98;;;6.85;;
25153;SDS011;47555;51.038;6.280;2023-05-23T02:16:17;10.13;;;6.28;;
25153;SDS011;47555;51.038;6.280;2023-05-23T02:18:43;9.75;;;6.40;;
25153;SDS011;47555;51.038;6.280;2023-05-23T02:21:10;11.32;;;7.03;;
25153;SDS011;47555;51.038;6.280;2023-05-23T02:23:36;13.95;;;8.48;;
25153;SDS011;47555;51.038;6.280;2023-05-23T02:26:02;17.30;;;11.00;;
25153;SDS011;47555;51.038;6.280;2023-05-23T02:28:27;23.35;;;14.68;;
25153;SDS011;47555;51.038;6.280;2023-05-23T02:30:53;31.35;;;17.77;;
25153;SDS011;47555;51.038;6.280;2023-05-23T02:33:20;31.98;;;19.15;;
25153;SDS011;47555;51.038;6.280;2023-05-23T02:35:45;32.88;;;19.33;;
25153;SDS011;47555;51.038;6.280;2023-05-23T02:38:13;26.75;;;17.58;;
25153;SDS011;47555;51.038;6.280;2023-05-23T02:40:40;29.80;;;17.88;;
25153;SDS011;47555;51.038;6.280;2023-05-23T02:43:06;29.92;;;18.92;;
25153;SDS011;47555;51.038;6.280;2023-05-23T02:45:32;30.73;;;17.80;;
25153;SDS011;47555;51.038;6.280;2023-05-23T02:47:58;27.77;;;16.70;;
25153;SDS011;47555;51.038;6.280;2023-05-23T02:50:24;28.00;;;17.35;;
25153;SDS011;47555;51.038;6.280;2023-05-23T02:52:50;27.98;;;16.95;;
25153;SDS011;47555;51.038;6.280;2023-05-23T02:55:16;33.38;;;17.30;;
25153;SDS011;47555;51.038;6.280;2023-05-23T02:57:42;27.08;;;16.55;;
25153;SDS011;47555;51.038;6.280;2023-05-23T03:00:08;27.40;;;15.50;;
25153;SDS011;47555;51.038;6.280;2023-05-23T03:02:35;23.27;;;13.93;;
25153;SDS011;47555;51.038;6.280;2023-05-23T03:05:01;20.75;;;13.75;;
25153;SDS011;47555;51.038;6.280;2023-05-23T03:07:27;23.30;;;13.70;;
25153;SDS011;47555;51.038;6.280;2023-05-23T03:09:54;22.38;;;13.27;;
25153;SDS011;47555;51.038;6.280;2023-05-23T03:12:20;19.48;;;11.63;;
25153;SDS011;47555;51.038;6.280;2023-05-23T03:14:46;13.77;;;9.45;;
25153;SDS011;47555;51.038;6.280;2023-05-23T03:17:12;15.60;;;10.00;;
25153;SDS011;47555;51.038;6.280;2023-05-23T03:19:38;13.20;;;9.50;;
25153;SDS011;47555;51.038;6.280;2023-05-23T03:22:04;13.70;;;8.70;;
25153;SDS011;47555;51.038;6.280;2023-05-23T03:24:30;14.25;;;8.43;;
25153;SDS011;47555;51.038;6.280;2023-05-23T03:26:56;11.52;;;8.65;;
25153;SDS011;47555;51.038;6.280;2023-05-23T03:29:22;13.43;;;8.70;;
25153;SDS011;47555;51.038;6.280;2023-05-23T03:31:48;16.92;;;9.63;;
25153;SDS011;47555;51.038;6.280;2023-05-23T03:34:14;13.30;;;8.63;;
25153;SDS011;47555;51.038;6.280;2023-05-23T03:36:40;12.57;;;8.20;;
25153;SDS011;47555;51.038;6.280;2023-05-23T03:39:06;11.82;;;7.70;;
25153;SDS011;47555;51.038;6.280;2023-05-23T03:41:32;16.30;;;8.45;;
25153;SDS011;47555;51.038;6.280;2023-05-23T03:43:58;15.93;;;8.95;;
25153;SDS011;47555;51.038;6.280;2023-05-23T03:46:25;16.38;;;9.40;;
25153;SDS011;47555;51.038;6.280;2023-05-23T03:48:51;15.27;;;8.65;;
25153;SDS011;47555;51.038;6.280;2023-05-23T03:51:17;15.43;;;8.55;;
25153;SDS011;47555;51.038;6.280;2023-05-23T03:53:43;14.43;;;8.90;;
25153;SDS011;47555;51.038;6.280;2023-05-23T03:56:09;15.07;;;8.77;;
25153;SDS011;47555;51.038;6.280;2023-05-23T03:58:35;15.75;;;8.43;;
25153;SDS011;47555;51.038;6.280;2023-05-23T04:01:01;13.30;;;8.32;;
25153;SDS011;47555;51.038;6.280;2023-05-23T04:03:27;14.20;;;8.68;;
25153;SDS011;47555;51.038;6.280;2023-05-23T04:05:56;19.10;;;9.82;;
25153;SDS011;47555;51.038;6.280;2023-05-23T04:08:22;16.80;;;8.73;;
25153;SDS011;47555;51.038;6.280;2023-05-23T04:10:48;16.30;;;9.10;;
25153;SDS011;47555;51.038;6.280;2023-05-23T04:13:14;17.63;;;9.00;;
25153;SDS011;47555;51.038;6.280;2023-05-23T04:15:40;22.58;;;10.48;;
25153;SDS011;47555;51.038;6.280;2023-05-23T04:18:06;18.25;;;11.70;;
25153;SDS011;47555;51.038;6.280;2023-05-23T04:20:33;27.05;;;13.27;;
25153;SDS011;47555;51.038;6.280;2023-05-23T04:22:59;20.85;;;11.35;;
25153;SDS011;47555;51.038;6.280;2023-05-23T04:25:25;18.75;;;9.65;;
25153;SDS011;47555;51.038;6.280;2023-05-23T04:27:51;16.15;;;10.48;;
25153;SDS011;47555;51.038;6.280;2023-05-23T04:30:18;17.95;;;10.50;;
25153;SDS011;47555;51.038;6.280;2023-05-23T04:32:44;17.85;;;9.80;;
25153;SDS011;47555;51.038;6.280;2023-05-23T04:35:10;19.48;;;11.95;;
25153;SDS011;47555;51.038;6.280;2023-05-23T04:37:36;17.70;;;9.43;;
25153;SDS011;47555;51.038;6.280;2023-05-23T04:40:03;18.05;;;9.52;;
25153;SDS011;47555;51.038;6.280;2023-05-23T04:42:29;14.00;;;9.60;;
25153;SDS011;47555;51.038;6.280;2023-05-23T04:44:57;14.43;;;8.38;;
25153;SDS011;47555;51.038;6.280;2023-05-23T04:47:26;17.35;;;8.90;;
25153;SDS011;47555;51.038;6.280;2023-05-23T04:49:53;16.55;;;10.00;;
25153;SDS011;47555;51.038;6.280;2023-05-23T04:52:19;16.75;;;9.82;;
25153;SDS011;47555;51.038;6.280;2023-05-23T04:54:45;17.77;;;10.23;;
25153;SDS011;47555;51.038;6.280;2023-05-23T04:57:12;17.67;;;9.68;;
25153;SDS011;47555;51.038;6.280;2023-05-23T04:59:39;16.23;;;9.27;;
25153;SDS011;47555;51.038;6.280;2023-05-23T05:02:06;17.80;;;8.88;;
25153;SDS011;47555;51.038;6.280;2023-05-23T05:04:33;16.35;;;9.65;;
25153;SDS011;47555;51.038;6.280;2023-05-23T05:06:59;15.48;;;10.00;;
25153;SDS011;47555;51.038;6.280;2023-05-23T05:09:27;15.48;;;8.90;;
25153;SDS011;47555;51.038;6.280;2023-05-23T05:11:54;14.88;;;8.23;;
25153;SDS011;47555;51.038;6.280;2023-05-23T05:14:20;13.15;;;8.07;;
25153;SDS011;47555;51.038;6.280;2023-05-23T05:16:45;14.23;;;8.18;;
25153;SDS011;47555;51.038;6.280;2023-05-23T05:19:12;15.60;;;9.23;;
25153;SDS011;47555;51.038;6.280;2023-05-23T05:21:38;14.05;;;9.48;;
25153;SDS011;47555;51.038;6.280;2023-05-23T05:24:04;16.63;;;10.35;;
25153;SDS011;47555;51.038;6.280;2023-05-23T05:26:33;20.27;;;11.88;;
25153;SDS011;47555;51.038;6.280;2023-05-23T05:29:00;18.75;;;10.73;;
25153;SDS011;47555;51.038;6.280;2023-05-23T05:31:26;18.42;;;10.80;;
25153;SDS011;47555;51.038;6.280;2023-05-23T05:33:53;18.05;;;9.82;;
25153;SDS011;47555;51.038;6.280;2023-05-23T05:36:19;17.83;;;10.48;;
25153;SDS011;47555;51.038;6.280;2023-05-23T05:38:45;15.57;;;9.60;;
25153;SDS011;47555;51.038;6.280;2023-05-23T05:41:11;14.48;;;8.52;;
25153;SDS011;47555;51.038;6.280;2023-05-23T05:43:37;14.95;;;8.80;;
25153;SDS011;47555;51.038;6.280;2023-05-23T05:46:03;16.85;;;9.20;;
25153;SDS011;47555;51.038;6.280;2023-05-23T05:48:29;14.60;;;8.10;;
25153;SDS011;47555;51.038;6.280;2023-05-23T05:50:55;14.63;;;8.25;;
25153;SDS011;47555;51.038;6.280;2023-05-23T05:53:21;14.38;;;7.97;;
25153;SDS011;47555;51.038;6.280;2023-05-23T05:55:47;13.13;;;7.10;;
25153;SDS011;47555;51.038;6.280;2023-05-23T05:58:13;10.75;;;7.38;;
25153;SDS011;47555;51.038;6.280;2023-05-23T06:00:39;11.05;;;7.47;;
25153;SDS011;47555;51.038;6.280;2023-05-23T06:03:09;15.23;;;8.75;;
25153;SDS011;47555;51.038;6.280;2023-05-23T06:05:35;12.82;;;7.18;;
25153;SDS011;47555;51.038;6.280;2023-05-23T06:08:03;14.13;;;6.97;;
25153;SDS011;47555;51.038;6.280;2023-05-23T06:10:29;12.07;;;7.07;;
25153;SDS011;47555;51.038;6.280;2023-05-23T06:12:55;11.48;;;7.22;;
25153;SDS011;47555;51.038;6.280;2023-05-23T06:15:21;11.07;;;7.03;;
25153;SDS011;47555;51.038;6.280;2023-05-23T06:17:47;12.18;;;7.68;;
25153;SDS011;47555;51.038;6.280;2023-05-23T06:20:13;14.48;;;6.95;;
25153;SDS011;47555;51.038;6.280;2023-05-23T06:22:39;13.30;;;7.82;;
25153;SDS011;47555;51.038;6.280;2023-05-23T06:25:05;15.57;;;7.88;;
25153;SDS011;47555;51.038;6.280;2023-05-23T06:27:31;13.55;;;7.30;;
25153;SDS011;47555;51.038;6.280;2023-05-23T06:29:57;14.52;;;7.72;;
25153;SDS011;47555;51.038;6.280;2023-05-23T06:32:23;12.52;;;7.53;;
25153;SDS011;47555;51.038;6.280;2023-05-23T06:34:49;11.55;;;7.20;;
25153;SDS011;47555;51.038;6.280;2023-05-23T06:37:15;13.48;;;7.57;;
25153;SDS011;47555;51.038;6.280;2023-05-23T06:39:41;11.73;;;7.70;;
25153;SDS011;47555;51.038;6.280;2023-05-23T06:42:07;13.20;;;8.18;;
25153;SDS011;47555;51.038;6.280;2023-05-23T06:44:33;12.75;;;8.05;;
25153;SDS011;47555;51.038;6.280;2023-05-23T06:46:59;13.30;;;7.82;;
25153;SDS011;47555;51.038;6.280;2023-05-23T06:49:25;14.77;;;7.95;;
25153;SDS011;47555;51.038;6.280;2023-05-23T06:51:51;15.88;;;7.05;;
25153;SDS011;47555;51.038;6.280;2023-05-23T06:54:17;13.10;;;7.53;;
25153;SDS011;47555;51.038;6.280;2023-05-23T06:56:43;12.90;;;7.85;;
25153;SDS011;47555;51.038;6.280;2023-05-23T06:59:10;13.98;;;7.28;;
25153;SDS011;47555;51.038;6.280;2023-05-23T07:01:36;13.25;;;8.18;;
25153;SDS011;47555;51.038;6.280;2023-05-23T07:04:02;11.32;;;7.20;;
25153;SDS011;47555;51.038;6.280;2023-05-23T07:06:28;14.40;;;7.65;;
25153;SDS011;47555;51.038;6.280;2023-05-23T07:08:54;13.20;;;7.60;;
25153;SDS011;47555;51.038;6.280;2023-05-23T07:11:20;12.10;;;7.00;;
25153;SDS011;47555;51.038;6.280;2023-05-23T07:13:46;14.50;;;8.02;;
25153;SDS011;47555;51.038;6.280;2023-05-23T07:16:12;13.80;;;7.47;;
25153;SDS011;47555;51.038;6.280;2023-05-23T07:18:38;13.10;;;7.63;;
25153;SDS011;47555;51.038;6.280;2023-05-23T07:21:04;12.55;;;7.30;;
25153;SDS011;47555;51.038;6.280;2023-05-23T07:23:33;20.20;;;8.98;;
25153;SDS011;47555;51.038;6.280;2023-05-23T07:25:59;17.58;;;7.80;;
25153;SDS011;47555;51.038;6.280;2023-05-23T07:28:26;15.45;;;8.52;;
25153;SDS011;47555;51.038;6.280;2023-05-23T07:30:52;18.40;;;8.23;;
25153;SDS011;47555;51.038;6.280;2023-05-23T07:33:18;17.27;;;9.07;;
25153;SDS011;47555;51.038;6.280;2023-05-23T07:35:44;14.82;;;8.80;;
25153;SDS011;47555;51.038;6.280;2023-05-23T07:38:10;16.95;;;9.27;;
25153;SDS011;47555;51.038;6.280;2023-05-23T07:40:36;17.83;;;9.32;;
25153;SDS011;47555;51.038;6.280;2023-05-23T07:43:04;19.63;;;9.32;;
25153;SDS011;47555;51.038;6.280;2023-05-23T07:45:30;17.48;;;9.30;;
25153;SDS011;47555;51.038;6.280;2023-05-23T07:47:56;22.33;;;10.13;;
25153;SDS011;47555;51.038;6.280;2023-05-23T07:50:22;22.00;;;9.18;;
25153;SDS011;47555;51.038;6.280;2023-05-23T07:52:48;17.98;;;8.73;;
25153;SDS011;47555;51.038;6.280;2023-05-23T07:55:15;21.27;;;9.88;;
25153;SDS011;47555;51.038;6.280;2023-05-23T07:57:41;17.88;;;8.15;;
25153;SDS011;47555;51.038;6.280;2023-05-23T08:00:07;20.23;;;9.48;;
25153;SDS011;47555;51.038;6.280;2023-05-23T08:02:34;18.02;;;8.63;;
25153;SDS011;47555;51.038;6.280;2023-05-23T08:05:00;16.95;;;7.72;;
25153;SDS011;47555;51.038;6.280;2023-05-23T08:07:26;16.60;;;8.35;;
25153;SDS011;47555;51.038;6.280;2023-05-23T08:09:52;18.95;;;7.95;;
25153;SDS011;47555;51.038;6.280;2023-05-23T08:12:18;22.00;;;10.27;;
25153;SDS011;47555;51.038;6.280;2023-05-23T08:14:44;20.65;;;9.88;;
25153;SDS011;47555;51.038;6.280;2023-05-23T08:17:11;22.52;;;10.13;;
25153;SDS011;47555;51.038;6.280;2023-05-23T08:19:37;19.55;;;10.05;;
25153;SDS011;47555;51.038;6.280;2023-05-23T08:22:03;14.63;;;8.48;;
25153;SDS011;47555;51.038;6.280;2023-05-23T08:24:29;16.70;;;8.05;;
25153;SDS011;47555;51.038;6.280;2023-05-23T08:26:55;20.45;;;7.53;;
25153;SDS011;47555;51.038;6.280;2023-05-23T08:29:21;13.13;;;7.45;;
25153;SDS011;47555;51.038;6.280;2023-05-23T08:31:47;17.13;;;7.93;;
25153;SDS011;47555;51.038;6.280;2023-05-23T08:34:13;12.48;;;7.30;;
25153;SDS011;47555;51.038;6.280;2023-05-23T08:36:39;16.10;;;7.90;;
25153;SDS011;47555;51.038;6.280;2023-05-23T08:39:07;15.15;;;8.27;;
25153;SDS011;47555;51.038;6.280;2023-05-23T08:41:33;13.48;;;7.70;;
25153;SDS011;47555;51.038;6.280;2023-05-23T08:43:59;13.77;;;7.40;;
25153;SDS011;47555;51.038;6.280;2023-05-23T08:46:25;12.93;;;7.60;;
25153;SDS011;47555;51.038;6.280;2023-05-23T08:48:52;18.60;;;6.63;;
25153;SDS011;47555;51.038;6.280;2023-05-23T08:51:20;15.15;;;6.75;;
25153;SDS011;47555;51.038;6.280;2023-05-23T08:53:46;13.60;;;7.05;;
25153;SDS011;47555;51.038;6.280;2023-05-23T08:56:13;15.52;;;6.90;;
25153;SDS011;47555;51.038;6.280;2023-05-23T08:58:40;11.10;;;6.32;;
25153;SDS011;47555;51.038;6.280;2023-05-23T09:01:07;14.95;;;7.32;;
25153;SDS011;47555;51.038;6.280;2023-05-23T09:03:34;11.50;;;6.20;;
25153;SDS011;47555;51.038;6.280;2023-05-23T09:06:01;11.18;;;6.55;;
25153;SDS011;47555;51.038;6.280;2023-05-23T09:08:27;13.68;;;6.40;;
25153;SDS011;47555;51.038;6.280;2023-05-23T09:10:54;12.57;;;6.03;;
25153;SDS011;47555;51.038;6.280;2023-05-23T09:13:20;14.07;;;6.88;;
25153;SDS011;47555;51.038;6.280;2023-05-23T09:18:34;19.10;;;7.18;;
25153;SDS011;47555;51.038;6.280;2023-05-23T09:21:01;12.95;;;5.95;;
25153;SDS011;47555;51.038;6.280;2023-05-23T09:23:34;12.32;;;5.25;;
25153;SDS011;47555;51.038;6.280;2023-05-23T09:26:03;18.40;;;6.28;;
25153;SDS011;47555;51.038;6.280;2023-05-23T09:28:30;9.77;;;5.63;;
25153;SDS011;47555;51.038;6.280;2023-05-23T09:30:57;9.88;;;5.93;;
25153;SDS011;47555;51.038;6.280;2023-05-23T09:33:27;13.10;;;6.00;;
25153;SDS011;47555;51.038;6.280;2023-05-23T09:35:53;13.80;;;6.93;;
25153;SDS011;47555;51.038;6.280;2023-05-23T09:38:19;15.55;;;5.75;;
25153;SDS011;47555;51.038;6.280;2023-05-23T09:40:45;14.13;;;6.70;;
25153;SDS011;47555;51.038;6.280;2023-05-23T09:43:12;14.20;;;6.10;;
25153;SDS011;47555;51.038;6.280;2023-05-23T09:45:42;10.73;;;5.95;;
25153;SDS011;47555;51.038;6.280;2023-05-23T09:48:10;11.55;;;5.60;;
25153;SDS011;47555;51.038;6.280;2023-05-23T09:50:39;11.00;;;5.45;;
25153;SDS011;47555;51.038;6.280;2023-05-23T09:53:05;11.45;;;5.63;;
25153;SDS011;47555;51.038;6.280;2023-05-23T09:55:31;14.43;;;5.22;;
25153;SDS011;47555;51.038;6.280;2023-05-23T09:57:58;12.13;;;5.90;;
25153;SDS011;47555;51.038;6.280;2023-05-23T10:00:24;12.35;;;5.40;;
25153;SDS011;47555;51.038;6.280;2023-05-23T10:03:09;9.63;;;5.05;;
25153;SDS011;47555;51.038;6.280;2023-05-23T10:05:40;8.55;;;4.63;;
25153;SDS011;47555;51.038;6.280;2023-05-23T10:08:09;10.23;;;5.18;;
25153;SDS011;47555;51.038;6.280;2023-05-23T10:10:46;12.63;;;5.47;;
25153;SDS011;47555;51.038;6.280;2023-05-23T10:13:21;11.98;;;5.65;;
25153;SDS011;47555;51.038;6.280;2023-05-23T10:15:47;12.05;;;5.80;;
25153;SDS011;47555;51.038;6.280;2023-05-23T10:18:20;10.88;;;5.80;;
25153;SDS011;47555;51.038;6.280;2023-05-23T10:20:48;9.18;;;5.53;;
25153;SDS011;47555;51.038;6.280;2023-05-23T10:23:16;11.23;;;5.88;;
25153;SDS011;47555;51.038;6.280;2023-05-23T10:25:42;11.95;;;6.18;;
25153;SDS011;47555;51.038;6.280;2023-05-23T10:28:09;9.60;;;5.60;;
25153;SDS011;47555;51.038;6.280;2023-05-23T10:30:36;9.63;;;5.68;;
25153;SDS011;47555;51.038;6.280;2023-05-23T10:33:02;11.55;;;5.53;;
25153;SDS011;47555;51.038;6.280;2023-05-23T10:35:45;12.48;;;6.55;;
25153;SDS011;47555;51.038;6.280;2023-05-23T10:43:43;10.40;;;5.68;;
25153;SDS011;47555;51.038;6.280;2023-05-23T10:46:13;10.00;;;5.40;;
25153;SDS011;47555;51.038;6.280;2023-05-23T10:48:43;10.32;;;5.10;;
25153;SDS011;47555;51.038;6.280;2023-05-23T10:51:10;12.93;;;5.40;;
25153;SDS011;47555;51.038;6.280;2023-05-23T10:53:37;10.77;;;5.20;;
25153;SDS011;47555;51.038;6.280;2023-05-23T10:56:04;10.75;;;5.05;;
25153;SDS011;47555;51.038;6.280;2023-05-23T10:58:31;10.20;;;5.18;;
25153;SDS011;47555;51.038;6.280;2023-05-23T11:01:07;8.43;;;4.78;;
25153;SDS011;47555;51.038;6.280;2023-05-23T11:09:00;9.98;;;4.80;;
25153;SDS011;47555;51.038;6.280;2023-05-23T11:11:40;11.02;;;5.20;;
25153;SDS011;47555;51.038;6.280;2023-05-23T11:14:12;10.90;;;5.10;;
25153;SDS011;47555;51.038;6.280;2023-05-23T11:16:41;10.77;;;4.72;;
25153;SDS011;47555;51.038;6.280;2023-05-23T11:21:52;10.48;;;5.22;;
25153;SDS011;47555;51.038;6.280;2023-05-23T11:24:18;11.05;;;4.30;;
25153;SDS011;47555;51.038;6.280;2023-05-23T11:26:51;8.18;;;4.68;;
25153;SDS011;47555;51.038;6.280;2023-05-23T11:29:18;8.48;;;4.28;;
25153;SDS011;47555;51.038;6.280;2023-05-23T11:31:44;7.68;;;4.45;;
25153;SDS011;47555;51.038;6.280;2023-05-23T11:34:10;9.88;;;4.57;;
25153;SDS011;47555;51.038;6.280;2023-05-23T11:36:37;8.88;;;4.13;;
25153;SDS011;47555;51.038;6.280;2023-05-23T11:39:04;10.25;;;4.53;;
25153;SDS011;47555;51.038;6.280;2023-05-23T11:41:31;7.18;;;4.38;;
25153;SDS011;47555;51.038;6.280;2023-05-23T11:43:57;6.40;;;3.95;;
25153;SDS011;47555;51.038;6.280;2023-05-23T11:46:25;7.93;;;4.75;;
25153;SDS011;47555;51.038;6.280;2023-05-23T11:48:51;6.85;;;4.35;;
25153;SDS011;47555;51.038;6.280;2023-05-23T11:51:17;8.00;;;4.15;;
25153;SDS011;47555;51.038;6.280;2023-05-23T11:53:45;9.30;;;4.10;;
25153;SDS011;47555;51.038;6.280;2023-05-23T11:56:13;12.65;;;4.40;;
25153;SDS011;47555;51.038;6.280;2023-05-23T11:58:39;10.00;;;4.28;;
25153;SDS011;47555;51.038;6.280;2023-05-23T12:01:07;6.75;;;3.85;;
25153;SDS011;47555;51.038;6.280;2023-05-23T12:03:54;7.13;;;3.65;;
25153;SDS011;47555;51.038;6.280;2023-05-23T12:06:20;6.82;;;2.90;;
25153;SDS011;47555;51.038;6.280;2023-05-23T12:08:48;7.82;;;3.05;;
25153;SDS011;47555;51.038;6.280;2023-05-23T12:11:14;5.57;;;3.03;;
25153;SDS011;47555;51.038;6.280;2023-05-23T12:13:41;5.30;;;3.25;;
25153;SDS011;47555;51.038;6.280;2023-05-23T12:16:07;6.00;;;3.03;;
25153;SDS011;47555;51.038;6.280;2023-05-23T12:18:33;5.90;;;2.90;;
25153;SDS011;47555;51.038;6.280;2023-05-23T12:21:03;5.47;;;3.05;;
25153;SDS011;47555;51.038;6.280;2023-05-23T12:25:57;8.30;;;3.47;;
25153;SDS011;47555;51.038;6.280;2023-05-23T12:28:39;6.97;;;3.78;;
25153;SDS011;47555;51.038;6.280;2023-05-23T12:31:17;6.03;;;2.97;;
25153;SDS011;47555;51.038;6.280;2023-05-23T12:33:43;4.82;;;3.05;;
25153;SDS011;47555;51.038;6.280;2023-05-23T13:00:56;7.70;;;3.03;;
25153;SDS011;47555;51.038;6.280;2023-05-23T13:03:21;7.78;;;2.88;;
25153;SDS011;47555;51.038;6.280;2023-05-23T13:05:47;7.45;;;2.70;;
25153;SDS011;47555;51.038;6.280;2023-05-23T13:08:13;9.77;;;3.30;;
25153;SDS011;47555;51.038;6.280;2023-05-23T13:10:40;6.72;;;2.97;;
25153;SDS011;47555;51.038;6.280;2023-05-23T13:13:06;7.88;;;3.15;;
25153;SDS011;47555;51.038;6.280;2023-05-23T13:15:32;9.82;;;3.42;;
25153;SDS011;47555;51.038;6.280;2023-05-23T13:17:58;8.35;;;3.35;;
25153;SDS011;47555;51.038;6.280;2023-05-23T13:20:24;8.48;;;3.13;;
25153;SDS011;47555;51.038;6.280;2023-05-23T13:22:54;9.82;;;3.45;;
25153;SDS011;47555;51.038;6.280;2023-05-23T13:25:20;11.15;;;3.72;;
25153;SDS011;47555;51.038;6.280;2023-05-23T13:27:46;8.48;;;3.55;;
25153;SDS011;47555;51.038;6.280;2023-05-23T13:30:13;9.70;;;3.40;;
25153;SDS011;47555;51.038;6.280;2023-05-23T13:32:39;10.05;;;3.42;;
25153;SDS011;47555;51.038;6.280;2023-05-23T13:35:05;5.60;;;2.88;;
25153;SDS011;47555;51.038;6.280;2023-05-23T13:37:31;9.25;;;3.40;;
25153;SDS011;47555;51.038;6.280;2023-05-23T13:40:00;8.05;;;3.38;;
25153;SDS011;47555;51.038;6.280;2023-05-23T13:42:26;9.57;;;3.35;;
25153;SDS011;47555;51.038;6.280;2023-05-23T13:44:52;8.25;;;2.92;;
25153;SDS011;47555;51.038;6.280;2023-05-23T13:47:18;11.95;;;3.85;;
25153;SDS011;47555;51.038;6.280;2023-05-23T13:49:44;7.35;;;3.42;;
25153;SDS011;47555;51.038;6.280;2023-05-23T13:52:10;6.25;;;2.70;;
25153;SDS011;47555;51.038;6.280;2023-05-23T13:54:36;6.78;;;2.92;;
25153;SDS011;47555;51.038;6.280;2023-05-23T13:57:02;12.38;;;3.08;;
25153;SDS011;47555;51.038;6.280;2023-05-23T13:59:28;11.45;;;2.75;;
25153;SDS011;47555;51.038;6.280;2023-05-23T14:01:55;5.85;;;2.85;;
25153;SDS011;47555;51.038;6.280;2023-05-23T14:04:20;8.45;;;3.40;;
25153;SDS011;47555;51.038;6.280;2023-05-23T14:06:47;9.48;;;3.22;;
25153;SDS011;47555;51.038;6.280;2023-05-23T14:09:13;8.00;;;2.72;;
25153;SDS011;47555;51.038;6.280;2023-05-23T14:11:39;6.93;;;2.80;;
25153;SDS011;47555;51.038;6.280;2023-05-23T14:14:05;8.15;;;3.10;;
25153;SDS011;47555;51.038;6.280;2023-05-23T14:16:31;9.00;;;2.80;;
25153;SDS011;47555;51.038;6.280;2023-05-23T14:18:57;7.32;;;3.35;;
25153;SDS011;47555;51.038;6.280;2023-05-23T14:21:23;9.60;;;3.25;;
25153;SDS011;47555;51.038;6.280;2023-05-23T14:23:49;8.35;;;3.50;;
25153;SDS011;47555;51.038;6.280;2023-05-23T14:26:15;9.30;;;3.22;;
25153;SDS011;47555;51.038;6.280;2023-05-23T14:28:41;6.63;;;2.83;;
25153;SDS011;47555;51.038;6.280;2023-05-23T14:31:07;7.28;;;3.05;;
25153;SDS011;47555;51.038;6.280;2023-05-23T14:33:33;8.27;;;3.05;;
25153;SDS011;47555;51.038;6.280;2023-05-23T14:35:59;6.90;;;2.80;;
25153;SDS011;47555;51.038;6.280;2023-05-23T14:38:25;8.82;;;2.88;;
25153;SDS011;47555;51.038;6.280;2023-05-23T14:40:51;9.75;;;2.95;;
25153;SDS011;47555;51.038;6.280;2023-05-23T14:43:18;9.57;;;3.33;;
25153;SDS011;47555;51.038;6.280;2023-05-23T14:45:44;13.50;;;3.20;;
25153;SDS011;47555;51.038;6.280;2023-05-23T14:48:10;11.02;;;3.10;;
25153;SDS011;47555;51.038;6.280;2023-05-23T14:50:36;9.02;;;3.45;;
25153;SDS011;47555;51.038;6.280;2023-05-23T14:53:02;8.32;;;3.50;;
25153;SDS011;47555;51.038;6.280;2023-05-23T14:55:28;8.98;;;2.88;;
25153;SDS011;47555;51.038;6.280;2023-05-23T14:57:54;8.63;;;3.33;;
25153;SDS011;47555;51.038;6.280;2023-05-23T15:00:21;8.48;;;2.53;;
25153;SDS011;47555;51.038;6.280;2023-05-23T15:02:47;8.65;;;2.70;;
25153;SDS011;47555;51.038;6.280;2023-05-23T15:05:13;7.38;;;2.92;;
25153;SDS011;47555;51.038;6.280;2023-05-23T15:07:39;8.05;;;3.22;;
25153;SDS011;47555;51.038;6.280;2023-05-23T15:10:06;6.53;;;2.80;;
25153;SDS011;47555;51.038;6.280;2023-05-23T15:12:32;6.70;;;3.30;;
25153;SDS011;47555;51.038;6.280;2023-05-23T15:14:58;9.68;;;2.95;;
25153;SDS011;47555;51.038;6.280;2023-05-23T15:17:31;6.35;;;2.78;;
25153;SDS011;47555;51.038;6.280;2023-05-23T15:19:57;6.60;;;2.58;;
25153;SDS011;47555;51.038;6.280;2023-05-23T15:22:24;4.95;;;3.33;;